• Join FlightAware (Why Join?)
  • Login
  • US Flag GB Flag 
15:37 EST


 

Airport Tracker/Info


-or-


 

Live Flight TrackerFlight Track Log ✈ ACA7033 ✈ 07-Oct-2013 ✈ KRDU - KPIT

Flight Track Log - Related Links

Times and Time Zones

All times are in EDT time to prevent confusion due to time zone crossing. See the ACA7033 flight status page for this flight to view local times or setup timezone preferences in your user account.

Time Position Orientation Groundspeed Altitude Reporting Facility
EDT Latitude Longitude Course Direction KTS MPH feet Rate Location/Type
12:31 35.8542 -78.8108 334° Northwest 130 150 1,700  Level Washington Center
12:32 35.8367 -78.8408 234° Southwest 149 171 3,100 1,980 Climbing Washington Center
12:33 35.8658 -78.9139 296° West 201 231 5,400 3,000 Climbing Washington Center
12:34 35.9056 -78.9872 304° West 235 270 9,400 3,000 Climbing Washington Center
12:36 35.9944 -79.1606 302° West 308 354 14,400 2,520 Climbing Washington Center
12:37 36.5957 -79.0004 334° Northwest  Level Estimated
12:37 36.0756 -79.2386 322° Northwest 339 390 16,900  Level Washington Center
12:38 36.1608 -79.3172 323° Northwest 364 419 19,800 2,220 Climbing Washington Center
12:39 36.2264 -79.4156 310° West 364 419 21,500 1,920 Climbing Washington Center
12:40 36.3311 -79.4697 337° Northwest 383 441 23,800 1,980 Climbing Washington Center
12:41 36.4375 -79.5369 333° Northwest 402 463 25,500 1,140 Climbing Washington Center
12:42 36.5500 -79.6022 335° Northwest 416 479 26,100 540 Climbing Washington Center
12:43 36.6606 -79.6650 336° Northwest 455 524 26,700 420 Climbing Washington Center
12:44 36.7872 -79.7417 334° Northwest 481 554 27,000 120 Climbing Washington Center
12:45 36.9181 -79.8186 335° Northwest 501 577 27,000  Level Washington Center
12:46 37.0489 -79.8989 334° Northwest 506 582 27,000  Level Washington Center
12:47 37.1936 -79.9878 334° Northwest 518 596 27,000  Level Washington Center
12:48 37.3353 -80.0533 340° North 523 602 27,000  Level Washington Center
12:49 37.4842 -80.0831 351° North 535 616 27,000  Level Washington Center
12:50 37.6364 -80.0842 360° North 535 616 27,000  Level Washington Center
12:51 37.7928 -80.0856 360° North 540 621 27,000  Level Washington Center
12:52 37.9472 -80.0897 359° North 546 628 27,000 -900 Level Washington Center
12:53 38.0847 -80.0900 360° North 551 634 25,200 -1,500 Descending Washington Center
12:54 38.2392 -80.0914 360° North 551 634 24,000 -600 Descending Washington Center
12:55 38.3911 -80.0953 359° North 551 634 24,000 -660 Level Washington Center
12:56 38.5453 -80.0992 359° North 551 634 22,800 -1,080 Descending Washington Center
12:58 38.8344 -80.0961 360° North 519 597 21,000 -660 Descending Cleveland Center
12:59 38.9750 -80.0611 11° North 520 598 21,000  Level Cleveland Center
13:00 39.1053 -79.9703 28° Northeast 537 618 21,000  Level Cleveland Center
13:01 39.2369 -79.8800 28° Northeast 542 624 21,000  Level Cleveland Center
13:02 39.3969 -79.7692 28° Northeast 547 629 21,000  Level Cleveland Center
13:03 39.5317 -79.6739 29° Northeast 553 636 21,000 -240 Level Cleveland Center
13:04 39.6544 -79.5867 29° Northeast 513 590 20,600 -1,140 Descending Cleveland Center
13:05 39.7656 -79.5086 28° Northeast 469 540 18,700 -1,920 Descending Cleveland Center
13:06 39.8725 -79.4311 29° Northeast 451 519 16,700 -1,920 Descending Cleveland Center
13:07 39.9831 -79.4042 11° North 430 495 14,800 -2,040 Descending Cleveland Center
13:08 40.0639 -79.5006 318° Northwest 330 380 12,500 -1,980 Descending Cleveland Center
13:09 40.1081 -79.5967 301° West 310 357 10,800 -1,200 Descending Cleveland Center
13:10 40.1492 -79.6783 303° West 269 310 10,100 -1,020 Descending Cleveland Center
13:11 40.1858 -79.7575 301° West 255 293 8,700 -1,500 Descending Cleveland Center
13:12 40.2194 -79.8414 298° West 258 297 7,100 -1,320 Descending Cleveland Center
13:13 40.2572 -79.9194 302° West 258 297 6,000 -780 Descending Cleveland Center
13:14 40.3153 -79.9994 314° West 259 298 5,600 -900 Descending Cleveland Center
13:15 40.3644 -80.0614 316° Northwest 254 292 4,200 -1,260 Descending Cleveland Center
13:16 40.4106 -80.1192 316° Northwest 243 280 3,000 -1,140 Descending Cleveland Center
13:17 40.4514 -80.1706 316° Northwest 199 229 1,900 -900 Descending Cleveland Center
13:18 40.4783 -80.2028 318° Northwest 155 178 1,200 -720 Descending Cleveland Center
13:20 40.4833 -80.2167 315° West  Level FlightAware Approximate
13:27 40.4914 -80.2327 315° West  Level Estimated